Terminal Aerodrome Forecast
Issued by NWS Duluth, MN

Home | Current Version | Previous Version | Text Only | Print | Product List | Glossary On
Versions: 1 2 3 4 5 6 7 8 9 10 11 12 13 14 15 16 17 18 19 20 21 22 23 24 25 26 27
000
FTUS43 KDLH 031900 AAB
TAFDLH
TAF AMD
KDLH 031900Z 0319/0418 10008KT P6SM OVC003
     FM031930 07009KT P6SM SKC
     FM040500 06005KT 5SM BR SCT002
     FM040800 06005KT 1/2SM FG OVC002
     FM041630 07008KT P6SM SCT002=

USA.gov is the U.S. government's official web portal to all federal, state and local government web resources and services.